Chatham, MA

5:02 AM EST on January 28, 2015 (GMT -0500)
Oyster Pond and River | Change Station
CLOSE
Current Station
Personal Weather Station
Location: Chatham, MA
Elevation: 69 ft
Nearby Weather Stations

Elev 69 ft 41.68 °N, 69.97 °W | Updated 2 seconds ago

Light Snow
Light Snow Mist
20.6 °F
Feels Like 15 °F
N
4.0
Wind Variable Wind from West
Gusts 13.0 mph

Today
High -- | Low -- °F
--% Chance of Precip.
Yesterday
High -- | Low -- °F
Precip. -- in
6:56 AM 4:50 PM
Waxing Gibbous, 63% visible
Pressure 29.69 in
Visibility 2.5 miles
Clouds Mostly Cloudy 1600 ft
Overcast 2300 ft
Windchill 15 °F
Dew Point -27 °F
Humidity 10%
Rainfall 0.00 in
Snow Depth Not available.
UV 0 out of 12
Pollen .10 out of 12
Air Quality Not available.
Flu Activity Not available.
METAR KCQX 280852Z AUTO 31007G18KT 2 1/2SM -SN BR BKN016 OVC023 M07/M08 A2968 RMK AO2 SLP053 P0000 60001 T10671083 52034 $

More Conditions Fewer Conditions

Pressure 29.69 in
Visibility 2.5 miles
Clouds Mostly Cloudy 1600 ft
Overcast 2300 ft
Windchill 15 °F
Dew Point -27 °F
Humidity 10%
Rainfall 0.00 in
Snow Depth Not available.
UV 0 out of 12
Pollen .10 out of 12
Air Quality Not available.
Flu Activity Not available.
METAR KCQX 280852Z AUTO 31007G18KT 2 1/2SM -SN BR BKN016 OVC023 M07/M08 A2968 RMK AO2 SLP053 P0000 60001 T10671083 52034 $

More Conditions Fewer Conditions

10-Day Weather Forecast

Almanac

Astronomy

Jan. 28, 2015 Rise Set
Actual Time
Civil Twilight
Nautical Twilight
Astronomical Twilight
Moon
Length of Visible Light
Length of Day
Tomorrow will be .
, % of the Moon is Illuminated

Today's Extremes

State Highs State Lows

Community

WunderPhotos

Upload Photos

1,791,121 photos uploaded!

WunderBlogs® & News

Nearby

Air Quality

  Air Quality AQ Index Pollutant
Not available.

Snow Depth

Station Depth Elevation

Earthquake Activity

City Distance Mag. Time & Date
Minimum magnitude displayed is 2.5.

Coastal Water Temperatures

Place Temperature

Nearby Weather Stations